createdAt,value
2022-08-03T00:02:33.002Z,20.91
2022-08-03T00:05:35.771Z,20.92
2022-08-03T00:08:40.115Z,20.90
2022-08-03T00:11:43.233Z,20.90
2022-08-03T00:14:45.894Z,20.87
2022-08-03T00:17:53.587Z,20.77
2022-08-03T00:20:56.949Z,20.73
2022-08-03T00:23:59.805Z,20.74
2022-08-03T00:27:02.497Z,20.72
2022-08-03T00:30:06.274Z,20.75
2022-08-03T00:33:10.904Z,20.78
2022-08-03T00:36:13.549Z,20.77
2022-08-03T00:39:16.409Z,20.72
2022-08-03T00:42:19.214Z,20.75
2022-08-03T00:45:23.182Z,20.75
2022-08-03T00:48:33.772Z,20.74
2022-08-03T00:51:36.682Z,20.68
2022-08-03T00:54:40.076Z,20.59
2022-08-03T00:57:44.056Z,20.56
2022-08-03T01:00:46.899Z,20.55
2022-08-03T01:03:50.960Z,20.56
2022-08-03T01:06:59.313Z,20.57
2022-08-03T01:10:04.342Z,20.57
2022-08-03T01:14:04.551Z,20.60
2022-08-03T01:16:49.282Z,20.59
2022-08-03T01:20:00.231Z,20.58
2022-08-03T01:23:23.234Z,20.59
2022-08-03T01:27:05.182Z,20.62
2022-08-03T01:30:12.042Z,20.59
2022-08-03T01:33:18.702Z,20.61
2022-08-03T01:36:25.692Z,20.63
2022-08-03T01:39:30.752Z,20.60
2022-08-03T01:42:35.052Z,20.60
2022-08-03T01:45:41.182Z,20.61
2022-08-03T01:48:45.915Z,20.63
2022-08-03T01:52:00.842Z,20.66
2022-08-03T01:55:09.314Z,20.68
2022-08-03T01:58:14.846Z,20.69
2022-08-03T02:01:21.110Z,20.69
2022-08-03T02:04:25.559Z,20.70
2022-08-03T02:07:30.473Z,20.67
2022-08-03T02:10:36.020Z,20.70
2022-08-03T02:13:40.151Z,20.73
2022-08-03T02:16:45.868Z,20.78
2022-08-03T02:19:48.972Z,20.74
2022-08-03T02:22:51.871Z,20.76
2022-08-03T02:26:02.120Z,20.79
2022-08-03T02:29:11.202Z,20.77
2022-08-03T02:32:20.556Z,20.78
2022-08-03T02:35:25.494Z,20.76
2022-08-03T02:38:37.133Z,20.75
2022-08-03T02:42:02.204Z,20.77
2022-08-03T02:45:09.079Z,20.77
2022-08-03T02:48:18.502Z,20.80
2022-08-03T02:51:22.745Z,20.74
2022-08-03T02:54:27.575Z,20.69
2022-08-03T02:57:34.786Z,20.65
2022-08-03T03:00:40.362Z,20.63
2022-08-03T03:03:45.462Z,20.58
2022-08-03T03:06:52.272Z,20.59
2022-08-03T03:09:57.793Z,20.62
2022-08-03T03:13:02.538Z,20.58
2022-08-03T03:16:07.414Z,20.60
2022-08-03T03:19:14.244Z,20.57
2022-08-03T03:22:18.221Z,20.56
2022-08-03T03:25:22.269Z,20.55
2022-08-03T03:28:25.544Z,20.47
2022-08-03T03:31:28.559Z,20.46
2022-08-03T03:34:33.142Z,20.47
2022-08-03T03:37:36.033Z,20.43
2022-08-03T03:40:39.411Z,20.42
2022-08-03T03:43:42.260Z,20.42
2022-08-03T03:46:45.411Z,20.37
2022-08-03T03:49:49.721Z,20.39
2022-08-03T03:52:55.076Z,20.42
2022-08-03T03:56:02.358Z,20.44
2022-08-03T03:59:05.646Z,20.48
2022-08-03T04:02:09.780Z,20.52
2022-08-03T04:05:32.378Z,20.55
2022-08-03T04:08:52.813Z,20.56
2022-08-03T04:11:59.738Z,20.57
2022-08-03T04:15:04.511Z,20.56
2022-08-03T04:18:09.629Z,20.60
2022-08-03T04:21:16.204Z,20.56
2022-08-03T04:24:21.779Z,20.58
2022-08-03T04:27:32.735Z,20.63
2022-08-03T04:30:38.700Z,20.77
2022-08-03T04:33:44.868Z,20.92
2022-08-03T04:36:54.815Z,21.13
2022-08-03T04:39:59.623Z,21.39
2022-08-03T04:43:03.539Z,21.76
2022-08-03T04:46:08.260Z,22.22
2022-08-03T04:49:11.481Z,22.64
2022-08-03T04:52:16.673Z,23.07
2022-08-03T04:55:27.086Z,23.42
2022-08-03T04:58:29.857Z,23.88
2022-08-03T05:01:32.743Z,24.23
2022-08-03T05:04:35.446Z,24.68
2022-08-03T05:07:39.617Z,25.10
2022-08-03T05:10:42.722Z,25.58
2022-08-03T05:13:45.749Z,25.99
2022-08-03T05:16:48.424Z,26.23
2022-08-03T05:19:53.684Z,26.55
2022-08-03T05:22:57.888Z,26.77
2022-08-03T05:26:00.662Z,27.04
2022-08-03T05:29:03.400Z,27.46
2022-08-03T05:32:08.386Z,27.71
2022-08-03T05:36:00.818Z,28.13
2022-08-03T05:38:36.285Z,28.45
2022-08-03T05:41:38.959Z,28.75
2022-08-03T05:44:42.249Z,29.01
2022-08-03T05:47:45.598Z,29.30
2022-08-03T05:50:48.412Z,29.55
2022-08-03T05:53:52.530Z,29.75
2022-08-03T05:56:55.389Z,29.98
2022-08-03T05:59:58.564Z,30.31
2022-08-03T06:03:01.612Z,30.45
2022-08-03T06:06:04.497Z,30.73
2022-08-03T06:09:08.486Z,30.87
2022-08-03T06:12:14.213Z,30.96
2022-08-03T06:15:18.656Z,31.27
2022-08-03T06:18:21.551Z,31.42
2022-08-03T06:21:24.201Z,31.66
2022-08-03T06:24:31.907Z,31.84
2022-08-03T06:27:36.447Z,31.88
2022-08-03T06:30:40.104Z,32.07
2022-08-03T06:34:31.244Z,32.39
2022-08-03T06:37:05.815Z,32.88
2022-08-03T06:40:13.924Z,33.00
2022-08-03T06:43:16.881Z,32.96
2022-08-03T06:46:20.231Z,33.00
2022-08-03T06:49:23.093Z,32.86
2022-08-03T06:52:37.907Z,33.07
2022-08-03T06:55:42.707Z,32.77
2022-08-03T06:58:47.044Z,32.84
2022-08-03T07:01:49.810Z,32.79
2022-08-03T07:04:52.537Z,32.92
2022-08-03T07:07:56.816Z,32.95
2022-08-03T07:11:00.866Z,33.09
2022-08-03T07:14:04.281Z,33.17
2022-08-03T07:17:11.794Z,33.27
2022-08-03T07:20:15.246Z,33.50
2022-08-03T07:23:19.081Z,33.85
2022-08-03T07:26:23.462Z,34.10
2022-08-03T07:29:26.396Z,34.29
2022-08-03T07:32:31.594Z,34.78
2022-08-03T07:35:34.553Z,34.36
2022-08-03T07:38:37.841Z,34.80
2022-08-03T07:41:41.805Z,34.68
2022-08-03T07:44:44.610Z,34.93
2022-08-03T07:47:53.411Z,35.13
2022-08-03T07:50:56.769Z,35.35
2022-08-03T07:54:00.987Z,35.43
2022-08-03T07:57:05.211Z,35.77
2022-08-03T08:00:10.092Z,36.02
2022-08-03T08:03:13.260Z,36.07
2022-08-03T08:06:16.614Z,36.05
2022-08-03T08:09:19.220Z,36.51
2022-08-03T08:12:23.250Z,36.55
2022-08-03T08:15:26.351Z,36.94
2022-08-03T08:18:29.490Z,36.98
2022-08-03T08:21:53.030Z,36.97
2022-08-03T08:24:54.912Z,36.95
2022-08-03T08:28:30.710Z,36.87
2022-08-03T08:31:24.522Z,36.90
2022-08-03T08:34:27.156Z,36.85
2022-08-03T08:37:30.045Z,37.07
2022-08-03T08:40:32.808Z,37.53
2022-08-03T08:43:36.822Z,37.55
2022-08-03T08:46:40.627Z,37.80
2022-08-03T08:49:58.212Z,37.74
2022-08-03T08:53:09.747Z,37.65
2022-08-03T08:56:16.228Z,37.50
2022-08-03T08:59:21.372Z,37.77
2022-08-03T09:02:24.092Z,38.01
2022-08-03T09:05:41.542Z,38.31
2022-08-03T09:08:49.612Z,38.44
2022-08-03T09:12:01.192Z,38.58
2022-08-03T09:15:25.315Z,38.31
2022-08-03T09:18:32.491Z,38.03
2022-08-03T09:21:36.335Z,37.88
2022-08-03T09:24:41.851Z,37.41
2022-08-03T09:27:45.840Z,37.68
2022-08-03T09:31:00.835Z,37.66
2022-08-03T09:34:05.469Z,37.26
2022-08-03T09:37:14.788Z,37.57
2022-08-03T09:40:36.204Z,37.87
2022-08-03T09:43:47.734Z,37.95
2022-08-03T09:46:53.369Z,38.11
2022-08-03T09:50:02.253Z,38.49
2022-08-03T09:53:05.212Z,38.74
2022-08-03T09:56:35.967Z,38.84
2022-08-03T09:59:32.384Z,38.64
2022-08-03T10:02:38.046Z,38.50
2022-08-03T10:05:44.644Z,38.85
2022-08-03T10:08:47.502Z,38.76
2022-08-03T10:11:50.252Z,38.80
2022-08-03T10:14:53.848Z,38.83
2022-08-03T10:17:57.796Z,39.06
2022-08-03T10:21:04.862Z,39.32
2022-08-03T10:24:10.634Z,39.39
2022-08-03T10:27:15.963Z,39.15
2022-08-03T10:30:18.818Z,38.99
2022-08-03T10:33:50.844Z,38.78
2022-08-03T10:36:59.792Z,38.71
2022-08-03T10:40:03.939Z,38.73
2022-08-03T10:43:10.914Z,38.96
2022-08-03T10:46:16.971Z,38.97
2022-08-03T10:49:35.115Z,39.12
2022-08-03T10:52:55.568Z,39.22
2022-08-03T10:56:16.973Z,39.04
2022-08-03T11:00:03.066Z,38.86
2022-08-03T11:03:11.165Z,39.36
2022-08-03T11:06:20.218Z,38.95
2022-08-03T11:09:22.872Z,38.90
2022-08-03T11:12:29.851Z,38.90
2022-08-03T11:15:35.954Z,39.29
2022-08-03T11:18:57.340Z,39.12
2022-08-03T11:22:01.401Z,39.08
2022-08-03T11:25:04.571Z,39.14
2022-08-03T11:28:27.976Z,39.35
2022-08-03T11:31:50.296Z,39.85
2022-08-03T11:35:08.881Z,39.67
2022-08-03T11:38:13.436Z,39.41
2022-08-03T11:41:44.920Z,39.16
2022-08-03T11:44:48.453Z,38.26
2022-08-03T11:47:55.356Z,38.85
2022-08-03T11:50:58.210Z,39.02
2022-08-03T11:54:04.508Z,38.97
2022-08-03T11:57:07.380Z,38.87
2022-08-03T12:00:24.124Z,38.27
2022-08-03T12:03:34.998Z,37.93
2022-08-03T12:06:51.745Z,38.08
2022-08-03T12:10:11.009Z,39.00
2022-08-03T12:14:05.774Z,39.13
2022-08-03T12:16:36.482Z,39.06
2022-08-03T12:19:46.373Z,38.44
2022-08-03T12:22:48.986Z,38.47
2022-08-03T12:25:53.104Z,38.38
2022-08-03T12:28:58.323Z,38.80
2022-08-03T12:32:01.257Z,38.35
2022-08-03T12:35:05.902Z,38.38
2022-08-03T12:38:08.639Z,37.75
2022-08-03T12:41:14.769Z,37.71
2022-08-03T12:44:17.433Z,37.49
2022-08-03T12:47:20.564Z,37.51
2022-08-03T12:50:28.645Z,37.59
2022-08-03T12:53:31.296Z,37.89
2022-08-03T12:56:35.671Z,38.06
2022-08-03T12:59:42.466Z,38.01
2022-08-03T13:03:38.322Z,37.74
2022-08-03T13:06:25.786Z,37.71
2022-08-03T13:09:29.024Z,37.57
2022-08-03T13:12:33.176Z,37.81
2022-08-03T13:15:38.808Z,38.08
2022-08-03T13:18:52.597Z,38.07
2022-08-03T13:22:04.272Z,37.98
2022-08-03T13:25:08.474Z,37.68
2022-08-03T13:28:14.533Z,37.78
2022-08-03T13:31:17.591Z,37.63
2022-08-03T13:34:23.482Z,37.52
2022-08-03T13:37:27.474Z,37.67
2022-08-03T13:40:36.757Z,37.73
2022-08-03T13:43:45.832Z,37.37
2022-08-03T13:46:49.798Z,37.41
2022-08-03T13:49:59.525Z,36.87
2022-08-03T13:53:03.324Z,36.85
2022-08-03T13:56:06.027Z,36.92
2022-08-03T13:59:11.170Z,36.97
2022-08-03T14:02:13.880Z,36.98
2022-08-03T14:05:16.780Z,36.97
2022-08-03T14:08:19.503Z,36.75
2022-08-03T14:11:22.158Z,36.27
2022-08-03T14:14:26.370Z,36.32
2022-08-03T14:17:42.405Z,36.51
2022-08-03T14:20:56.366Z,36.52
2022-08-03T14:24:00.038Z,36.44
2022-08-03T14:27:09.064Z,36.48
2022-08-03T14:30:15.048Z,36.43
2022-08-03T14:33:17.784Z,36.54
2022-08-03T14:36:20.608Z,36.29
2022-08-03T14:39:23.427Z,36.56
2022-08-03T14:42:26.469Z,36.62
2022-08-03T14:45:30.506Z,36.53
2022-08-03T14:50:29.595Z,36.56
2022-08-03T14:51:56.085Z,36.33
2022-08-03T14:54:59.093Z,36.12
2022-08-03T14:58:05.740Z,36.06
2022-08-03T15:02:02.903Z,35.76
2022-08-03T15:04:46.671Z,36.00
2022-08-03T15:07:49.537Z,36.17
2022-08-03T15:10:53.314Z,36.01
2022-08-03T15:13:56.146Z,35.97
2022-08-03T15:17:00.541Z,35.70
2022-08-03T15:20:27.780Z,35.39
2022-08-03T15:23:26.364Z,35.04
2022-08-03T15:26:35.345Z,35.29
2022-08-03T15:30:07.874Z,35.35
2022-08-03T15:33:06.876Z,35.52
2022-08-03T15:36:09.698Z,35.52
2022-08-03T15:39:12.457Z,35.39
2022-08-03T15:42:15.276Z,35.04
2022-08-03T15:45:20.350Z,35.09
2022-08-03T15:48:26.427Z,35.07
2022-08-03T15:51:29.875Z,35.07
2022-08-03T15:54:32.502Z,35.09
2022-08-03T15:59:04.293Z,34.73
2022-08-03T16:00:58.803Z,34.75
2022-08-03T16:04:03.045Z,34.67
2022-08-03T16:07:07.349Z,34.73
2022-08-03T16:10:17.712Z,34.63
2022-08-03T16:13:20.483Z,34.59
2022-08-03T16:16:23.263Z,34.68
2022-08-03T16:19:28.185Z,34.58
2022-08-03T16:22:31.070Z,34.51
2022-08-03T16:25:35.743Z,34.56
2022-08-03T16:28:39.054Z,34.39
2022-08-03T16:31:51.128Z,34.40
2022-08-03T16:34:55.753Z,34.24
2022-08-03T16:37:58.467Z,34.10
2022-08-03T16:41:01.279Z,34.10
2022-08-03T16:44:08.047Z,34.05
2022-08-03T16:47:22.134Z,34.14
2022-08-03T16:50:26.784Z,33.95
2022-08-03T16:53:33.773Z,33.91
2022-08-03T16:56:52.352Z,33.78
2022-08-03T16:59:56.244Z,33.65
2022-08-03T17:03:04.395Z,33.59
2022-08-03T17:06:17.099Z,33.57
2022-08-03T17:09:24.766Z,33.56
2022-08-03T17:12:28.377Z,33.40
2022-08-03T17:15:38.404Z,33.20
2022-08-03T17:18:58.550Z,33.08
2022-08-03T17:22:12.885Z,33.03
2022-08-03T17:25:22.142Z,32.95
2022-08-03T17:28:52.144Z,32.89
2022-08-03T17:32:06.542Z,32.83
2022-08-03T17:35:12.320Z,32.68
2022-08-03T17:38:22.773Z,32.58
2022-08-03T17:41:26.496Z,32.50
2022-08-03T17:44:38.743Z,32.43
2022-08-03T17:47:57.305Z,32.36
2022-08-03T17:51:04.151Z,32.28
2022-08-03T17:54:18.022Z,32.23
2022-08-03T17:57:30.018Z,32.14
2022-08-03T18:01:57.500Z,32.04
2022-08-03T18:04:42.714Z,31.90
2022-08-03T18:07:49.680Z,31.74
2022-08-03T18:11:14.409Z,31.62
2022-08-03T18:14:25.365Z,31.51
2022-08-03T18:17:55.063Z,31.38
2022-08-03T18:20:55.347Z,31.24
2022-08-03T18:23:59.456Z,31.10
2022-08-03T18:27:04.846Z,31.01
2022-08-03T18:30:11.937Z,30.88
2022-08-03T18:34:20.037Z,30.77
2022-08-03T18:36:39.888Z,30.63
2022-08-03T18:39:50.115Z,30.51
2022-08-03T18:42:56.869Z,30.39
2022-08-03T18:46:04.352Z,30.29
2022-08-03T18:49:12.868Z,30.18
2022-08-03T18:52:18.706Z,30.05
2022-08-03T18:55:33.770Z,29.90
2022-08-03T18:58:47.827Z,29.80
2022-08-03T19:01:59.929Z,29.66
2022-08-03T19:05:09.104Z,29.56
2022-08-03T19:08:17.826Z,29.47
2022-08-03T19:11:27.843Z,29.33
2022-08-03T19:14:42.451Z,29.20
2022-08-03T19:17:53.392Z,29.05
2022-08-03T19:20:56.984Z,28.92
2022-08-03T19:24:05.603Z,28.85
2022-08-03T19:27:13.012Z,28.71
2022-08-03T19:30:33.306Z,28.60
2022-08-03T19:33:56.013Z,28.53
2022-08-03T19:36:59.865Z,28.39
2022-08-03T19:40:02.764Z,28.30
2022-08-03T19:43:11.180Z,28.17
2022-08-03T19:46:22.528Z,28.10
2022-08-03T19:50:05.059Z,28.00
2022-08-03T19:53:00.733Z,27.90
2022-08-03T19:56:06.241Z,27.80
2022-08-03T19:59:13.142Z,27.71
2022-08-03T20:02:26.435Z,27.64
2022-08-03T20:05:30.557Z,27.57
2022-08-03T20:08:51.598Z,27.53
2022-08-03T20:11:55.069Z,27.42
2022-08-03T20:14:59.324Z,27.35
2022-08-03T20:18:03.426Z,27.27
2022-08-03T20:21:14.773Z,27.21
2022-08-03T20:24:23.777Z,27.14
2022-08-03T20:27:30.208Z,27.07
2022-08-03T20:30:33.242Z,26.97
2022-08-03T20:33:48.377Z,26.90
2022-08-03T20:37:00.675Z,26.74
2022-08-03T20:40:03.997Z,26.71
2022-08-03T20:43:06.878Z,26.67
2022-08-03T20:46:31.132Z,26.60
2022-08-03T20:49:46.318Z,26.51
2022-08-03T20:52:59.159Z,26.45
2022-08-03T20:56:06.070Z,26.39
2022-08-03T20:59:15.044Z,26.31
2022-08-03T21:02:19.860Z,26.25
2022-08-03T21:05:51.373Z,26.23
2022-08-03T21:09:03.822Z,26.18
2022-08-03T21:12:15.455Z,26.13
2022-08-03T21:16:11.205Z,26.07
2022-08-03T21:18:52.093Z,26.04
2022-08-03T21:21:56.810Z,26.01
2022-08-03T21:25:04.610Z,25.98
2022-08-03T21:28:08.531Z,25.92
2022-08-03T21:31:12.043Z,25.85
2022-08-03T21:34:16.511Z,25.82
2022-08-03T21:37:20.572Z,25.76
2022-08-03T21:40:23.503Z,25.66
2022-08-03T21:43:26.330Z,25.59
2022-08-03T21:46:33.843Z,25.49
2022-08-03T21:50:05.455Z,25.44
2022-08-03T21:53:02.168Z,25.34
2022-08-03T21:56:08.454Z,25.28
2022-08-03T21:59:17.557Z,25.21
2022-08-03T22:02:24.044Z,25.16
2022-08-03T22:05:42.911Z,25.14
2022-08-03T22:08:49.268Z,25.10
2022-08-03T22:11:54.050Z,25.03
2022-08-03T22:15:00.256Z,24.97
2022-08-03T22:18:05.407Z,24.92
2022-08-03T22:21:10.006Z,24.87
2022-08-03T22:24:16.573Z,24.82
2022-08-03T22:27:34.107Z,24.78
2022-08-03T22:30:37.571Z,24.76
2022-08-03T22:33:40.918Z,24.69
2022-08-03T22:36:44.009Z,24.64
2022-08-03T22:39:48.344Z,24.55
2022-08-03T22:42:52.319Z,24.47
2022-08-03T22:46:09.193Z,24.44
2022-08-03T22:49:15.119Z,24.38
2022-08-03T22:52:18.107Z,24.37
2022-08-03T22:55:25.270Z,24.36
2022-08-03T22:58:27.925Z,24.31
2022-08-03T23:01:37.825Z,24.26
2022-08-03T23:04:42.764Z,24.21
2022-08-03T23:07:46.124Z,24.12
2022-08-03T23:10:51.854Z,24.09
2022-08-03T23:13:55.075Z,24.06
2022-08-03T23:17:03.915Z,24.01
2022-08-03T23:20:09.114Z,23.97
2022-08-03T23:23:12.277Z,23.89
2022-08-03T23:26:19.011Z,23.87
2022-08-03T23:29:22.925Z,23.85
2022-08-03T23:32:26.870Z,23.86
2022-08-03T23:36:18.787Z,23.85
2022-08-03T23:39:06.872Z,23.85
2022-08-03T23:42:12.249Z,23.80
2022-08-03T23:45:18.730Z,23.76
2022-08-03T23:48:21.354Z,23.72
2022-08-03T23:51:33.232Z,23.73
2022-08-03T23:54:44.242Z,23.76
2022-08-03T23:58:02.865Z,23.79
